Pelican Rapids, Minnesota
Current Conditions -  °F | °C
As of 2:15 AM on Thursday 29 Jan 2015 (Local Time) from KFFM Reporting Station
Overcast Overcast  
Wind Chill:   Ceiling: 600
Heat Index: 25°   Visibility: 10mi
Dew Point: 25°   Wind: 28mph
Humidity: 100%   Direction: 340°NNW
Pressure: 30.12"   Gusts: 36mph
Location:  46.57°N, 96.08°W
Report Text: KFFM 290815Z AUTO 34024G31KT 10SM OVC006 M04/M04 A3012 RMK AO2
Loading
Personal Weather Stations






























Interactive Weather Map New forecast layout! Learn more

10-Day Weather Forecast

Advertisements
Track Severe Weather on mobile